createdAt,value
2023-03-25T00:00:44.700Z,10.10
2023-03-25T00:03:46.761Z,11.00
2023-03-25T00:06:48.695Z,9.50
2023-03-25T00:09:50.880Z,9.50
2023-03-25T00:12:58.993Z,10.20
2023-03-25T00:16:02.806Z,9.40
2023-03-25T00:19:04.779Z,9.80
2023-03-25T00:22:07.534Z,10.80
2023-03-25T00:25:11.368Z,10.70
2023-03-25T00:28:15.083Z,11.00
2023-03-25T00:31:17.121Z,10.40
2023-03-25T00:34:20.238Z,11.00
2023-03-25T00:37:25.747Z,11.20
2023-03-25T00:40:32.407Z,9.80
2023-03-25T00:43:35.454Z,9.70
2023-03-25T00:46:37.375Z,10.70
2023-03-25T00:49:39.277Z,11.20
2023-03-25T00:52:41.518Z,10.70
2023-03-25T00:55:46.708Z,9.70
2023-03-25T00:58:48.591Z,10.40
2023-03-25T01:01:53.141Z,11.00
2023-03-25T01:04:55.012Z,9.60
2023-03-25T01:07:56.812Z,9.60
2023-03-25T01:10:58.575Z,9.70
2023-03-25T01:14:01.644Z,9.60
2023-03-25T01:17:03.685Z,9.60
2023-03-25T01:20:06.264Z,9.70
2023-03-25T01:23:09.322Z,9.70
2023-03-25T01:26:13.030Z,9.70
2023-03-25T01:29:17.042Z,9.70
2023-03-25T01:32:18.746Z,9.70
2023-03-25T01:35:20.550Z,9.70
2023-03-25T01:38:23.487Z,9.70
2023-03-25T01:41:29.243Z,9.70
2023-03-25T01:44:37.727Z,9.70
2023-03-25T01:47:39.905Z,9.70
2023-03-25T01:50:47.605Z,9.70
2023-03-25T01:53:53.111Z,9.70
2023-03-25T01:56:56.028Z,9.60
2023-03-25T01:59:57.979Z,9.60
2023-03-25T02:03:02.583Z,9.60
2023-03-25T02:06:09.940Z,9.60
2023-03-25T02:09:16.602Z,9.90
2023-03-25T02:12:18.312Z,9.60
2023-03-25T02:15:20.784Z,9.60
2023-03-25T02:18:36.123Z,9.60
2023-03-25T02:22:11.784Z,9.60
2023-03-25T02:25:47.769Z,9.60
2023-03-25T02:29:03.037Z,9.50
2023-03-25T02:32:18.712Z,9.40
2023-03-25T02:35:20.576Z,9.30
2023-03-25T02:38:43.216Z,9.10
2023-03-25T02:42:08.952Z,9.10
2023-03-25T02:45:20.950Z,9.10
2023-03-25T02:48:37.849Z,9.10
2023-03-25T02:52:01.765Z,9.20
2023-03-25T02:55:10.260Z,9.10
2023-03-25T02:58:17.971Z,9.10
2023-03-25T03:01:22.674Z,9.10
2023-03-25T03:04:26.049Z,9.10
2023-03-25T03:07:32.576Z,9.00
2023-03-25T03:11:09.310Z,9.00
2023-03-25T03:14:22.079Z,9.10
2023-03-25T03:17:44.858Z,9.10
2023-03-25T03:21:00.597Z,9.10
2023-03-25T03:24:14.982Z,9.10
2023-03-25T03:27:33.635Z,9.10
2023-03-25T03:30:46.337Z,9.10
2023-03-25T03:33:52.406Z,9.10
2023-03-25T03:36:57.907Z,9.10
2023-03-25T03:40:02.763Z,9.10
2023-03-25T03:43:17.477Z,9.10
2023-03-25T03:46:34.393Z,9.10
2023-03-25T03:49:39.495Z,9.10
2023-03-25T03:53:03.135Z,9.20
2023-03-25T03:56:19.215Z,9.20
2023-03-25T03:59:34.593Z,9.10
2023-03-25T04:02:50.424Z,9.10
2023-03-25T04:06:06.469Z,9.20
2023-03-25T04:09:27.750Z,9.20
2023-03-25T04:12:37.572Z,9.20
2023-03-25T04:15:39.816Z,9.20
2023-03-25T04:18:43.429Z,9.20
2023-03-25T04:21:47.829Z,9.20
2023-03-25T04:24:49.879Z,9.20
2023-03-25T04:27:53.801Z,9.20
2023-03-25T04:30:56.916Z,9.10
2023-03-25T04:34:00.354Z,9.10
2023-03-25T04:37:02.164Z,8.90
2023-03-25T04:40:06.767Z,8.80
2023-03-25T04:43:08.702Z,8.70
2023-03-25T04:46:14.485Z,8.70
2023-03-25T04:49:21.622Z,8.60
2023-03-25T04:52:23.663Z,8.60
2023-03-25T04:55:25.744Z,8.70
2023-03-25T04:58:28.768Z,8.70
2023-03-25T05:01:31.010Z,8.70
2023-03-25T05:04:33.681Z,8.50
2023-03-25T05:07:35.461Z,8.50
2023-03-25T05:10:38.713Z,8.50
2023-03-25T05:13:40.575Z,8.50
2023-03-25T05:16:43.331Z,8.60
2023-03-25T05:19:45.082Z,8.60
2023-03-25T05:22:46.840Z,8.60
2023-03-25T05:25:51.224Z,8.70
2023-03-25T05:28:56.584Z,8.60
2023-03-25T05:31:58.314Z,8.60
2023-03-25T05:35:01.270Z,8.70
2023-03-25T05:38:04.226Z,8.70
2023-03-25T05:41:10.581Z,8.60
2023-03-25T05:44:15.061Z,8.60
2023-03-25T05:47:23.378Z,8.60
2023-03-25T05:50:25.405Z,8.60
2023-03-25T05:53:27.297Z,8.60
2023-03-25T05:56:29.688Z,8.60
2023-03-25T05:59:33.215Z,8.60
2023-03-25T06:02:38.779Z,8.60
2023-03-25T06:05:41.443Z,8.70
2023-03-25T06:08:50.044Z,8.70
2023-03-25T06:11:53.593Z,8.70
2023-03-25T06:14:55.372Z,8.70
2023-03-25T06:17:57.784Z,8.70
2023-03-25T06:20:59.670Z,8.60
2023-03-25T06:24:02.057Z,8.60
2023-03-25T06:27:06.884Z,8.70
2023-03-25T06:30:11.552Z,8.70
2023-03-25T06:33:13.886Z,8.70
2023-03-25T06:36:35.713Z,8.70
2023-03-25T06:39:40.064Z,8.80
2023-03-25T06:42:52.068Z,8.90
2023-03-25T06:46:14.162Z,8.90
2023-03-25T06:49:34.646Z,8.90
2023-03-25T06:52:37.075Z,9.00
2023-03-25T06:55:39.280Z,9.00
2023-03-25T06:58:41.667Z,9.00
2023-03-25T07:01:43.449Z,9.00
2023-03-25T07:04:45.311Z,9.00
2023-03-25T07:07:47.084Z,9.10
2023-03-25T07:10:48.816Z,9.10
2023-03-25T07:13:53.767Z,9.20
2023-03-25T07:16:56.248Z,9.20
2023-03-25T07:19:57.999Z,9.30
2023-03-25T07:22:59.753Z,9.40
2023-03-25T07:26:01.570Z,10.00
2023-03-25T07:29:03.949Z,9.70
2023-03-25T07:32:06.247Z,9.70
2023-03-25T07:35:09.395Z,9.90
2023-03-25T07:38:11.295Z,9.80
2023-03-25T07:41:13.846Z,9.80
2023-03-25T07:44:27.241Z,9.70
2023-03-25T07:47:28.974Z,9.60
2023-03-25T07:50:30.770Z,9.60
2023-03-25T07:53:32.626Z,9.60
2023-03-25T07:56:34.747Z,9.70
2023-03-25T07:59:36.504Z,9.60
2023-03-25T08:02:39.246Z,9.60
2023-03-25T08:05:48.537Z,9.50
2023-03-25T08:08:50.738Z,9.60
2023-03-25T08:11:52.497Z,9.80
2023-03-25T08:14:54.298Z,9.90
2023-03-25T08:17:56.323Z,9.90
2023-03-25T08:20:58.086Z,9.90
2023-03-25T08:24:02.100Z,9.90
2023-03-25T08:27:16.436Z,10.00
2023-03-25T08:30:18.628Z,10.00
2023-03-25T08:33:22.432Z,10.10
2023-03-25T08:36:24.762Z,10.20
2023-03-25T08:39:29.817Z,10.30
2023-03-25T08:42:31.508Z,10.30
2023-03-25T08:45:34.839Z,10.30
2023-03-25T08:48:37.061Z,10.20
2023-03-25T08:51:38.787Z,10.20
2023-03-25T08:54:40.583Z,10.20
2023-03-25T08:57:42.832Z,10.20
2023-03-25T09:00:45.619Z,10.30
2023-03-25T09:03:47.340Z,10.30
2023-03-25T09:07:11.703Z,10.30
2023-03-25T09:10:12.990Z,10.30
2023-03-25T09:13:15.472Z,10.10
2023-03-25T09:16:17.271Z,10.00
2023-03-25T09:19:19.045Z,10.00
2023-03-25T09:22:21.000Z,10.10
2023-03-25T09:25:23.199Z,10.20
2023-03-25T09:28:25.112Z,10.40
2023-03-25T09:31:26.965Z,10.80
2023-03-25T09:34:28.773Z,10.60
2023-03-25T09:37:30.868Z,10.30
2023-03-25T09:40:33.642Z,10.30
2023-03-25T09:43:52.872Z,10.50
2023-03-25T09:46:56.474Z,10.70
2023-03-25T09:50:02.790Z,10.80
2023-03-25T09:53:14.534Z,10.60
2023-03-25T09:56:24.417Z,10.80
2023-03-25T09:59:41.280Z,10.70
2023-03-25T10:03:02.279Z,10.50
2023-03-25T10:06:15.298Z,10.40
2023-03-25T10:09:34.800Z,10.20
2023-03-25T10:13:13.225Z,10.00
2023-03-25T10:16:57.410Z,9.80
2023-03-25T10:20:31.852Z,9.60
2023-03-25T10:23:50.357Z,9.80
2023-03-25T10:27:04.069Z,9.80
2023-03-25T10:30:21.774Z,10.00
2023-03-25T10:33:27.647Z,10.40
2023-03-25T10:36:36.327Z,10.70
2023-03-25T10:39:45.421Z,10.80
2023-03-25T10:43:17.496Z,11.60
2023-03-25T10:46:46.744Z,11.50
2023-03-25T10:49:49.972Z,11.20
2023-03-25T10:52:52.535Z,11.20
2023-03-25T10:56:04.594Z,11.10
2023-03-25T10:59:34.800Z,11.40
2023-03-25T11:02:36.605Z,11.20
2023-03-25T11:05:38.439Z,11.00
2023-03-25T11:08:57.459Z,10.80
2023-03-25T11:12:05.335Z,10.90
2023-03-25T11:15:07.825Z,11.20
2023-03-25T11:18:31.572Z,11.20
2023-03-25T11:21:35.401Z,11.50
2023-03-25T11:24:44.121Z,12.10
2023-03-25T11:27:49.853Z,12.20
2023-03-25T11:31:11.250Z,12.10
2023-03-25T11:34:13.658Z,12.10
2023-03-25T11:37:24.296Z,11.80
2023-03-25T11:40:28.011Z,11.80
2023-03-25T11:43:40.654Z,11.60
2023-03-25T11:46:45.197Z,11.10
2023-03-25T11:49:49.491Z,10.70
2023-03-25T11:52:58.522Z,10.60
2023-03-25T11:56:08.117Z,10.70
2023-03-25T11:59:21.742Z,10.40
2023-03-25T12:02:36.649Z,9.90
2023-03-25T12:05:39.055Z,9.50
2023-03-25T12:08:50.324Z,9.40
2023-03-25T12:12:09.702Z,9.30
2023-03-25T12:15:23.907Z,9.30
2023-03-25T12:18:34.483Z,9.20
2023-03-25T12:21:55.007Z,8.80
2023-03-25T12:25:23.615Z,8.60
2023-03-25T12:28:31.350Z,8.40
2023-03-25T12:31:59.746Z,8.30
2023-03-25T12:35:01.427Z,8.10
2023-03-25T12:38:26.604Z,8.30
2023-03-25T12:42:00.815Z,8.70
2023-03-25T12:45:22.630Z,9.50
2023-03-25T12:48:41.752Z,10.20
2023-03-25T12:51:46.253Z,10.60
2023-03-25T12:54:58.225Z,10.40
2023-03-25T12:58:18.691Z,10.20
2023-03-25T13:01:49.386Z,10.40
2023-03-25T13:05:23.012Z,10.40
2023-03-25T13:08:32.918Z,10.20
2023-03-25T13:11:45.368Z,10.40
2023-03-25T13:15:27.280Z,10.30
2023-03-25T13:18:36.826Z,10.20
2023-03-25T13:21:52.501Z,10.30
2023-03-25T13:24:59.210Z,10.10
2023-03-25T13:28:04.096Z,9.90
2023-03-25T13:31:11.704Z,9.60
2023-03-25T13:34:33.600Z,9.50
2023-03-25T13:37:40.705Z,9.30
2023-03-25T13:41:05.684Z,9.20
2023-03-25T13:44:33.672Z,9.70
2023-03-25T13:47:42.982Z,9.60
2023-03-25T13:50:44.920Z,9.50
2023-03-25T13:53:56.752Z,9.60
2023-03-25T13:57:45.373Z,9.60
2023-03-25T14:01:20.836Z,9.60
2023-03-25T14:04:57.463Z,9.80
2023-03-25T14:08:17.658Z,11.10
2023-03-25T14:11:21.929Z,11.70
2023-03-25T14:14:24.649Z,12.90
2023-03-25T14:17:28.351Z,14.60
2023-03-25T14:20:34.772Z,13.80
2023-03-25T14:23:36.688Z,11.80
2023-03-25T14:26:46.040Z,12.20
2023-03-25T14:29:56.762Z,11.70
2023-03-25T14:33:00.707Z,11.20
2023-03-25T14:36:02.648Z,11.00
2023-03-25T14:39:10.644Z,10.70
2023-03-25T14:42:25.113Z,10.40
2023-03-25T14:45:42.192Z,10.30
2023-03-25T14:48:49.157Z,10.20
2023-03-25T14:51:54.056Z,10.00
2023-03-25T14:54:56.813Z,9.70
2023-03-25T14:58:02.959Z,9.60
2023-03-25T15:01:14.682Z,9.50
2023-03-25T15:04:22.566Z,9.50
2023-03-25T15:07:47.116Z,9.40
2023-03-25T15:11:02.289Z,9.30
2023-03-25T15:14:10.906Z,9.40
2023-03-25T15:17:33.404Z,9.90
2023-03-25T15:20:36.195Z,10.70
2023-03-25T15:23:50.954Z,10.10
2023-03-25T15:26:56.033Z,10.00
2023-03-25T15:30:22.305Z,10.00
2023-03-25T15:33:30.878Z,9.90
2023-03-25T15:36:53.687Z,10.00
2023-03-25T15:40:30.624Z,10.00
2023-03-25T15:44:10.681Z,10.10
2023-03-25T15:47:41.610Z,9.90
2023-03-25T15:50:53.076Z,10.00
2023-03-25T15:54:03.526Z,10.00
2023-03-25T15:57:17.142Z,10.90
2023-03-25T16:00:44.844Z,10.60
2023-03-25T16:04:02.009Z,10.30
2023-03-25T16:07:07.006Z,10.30
2023-03-25T16:10:19.199Z,10.10
2023-03-25T16:13:25.991Z,10.10
2023-03-25T16:16:29.411Z,10.10
2023-03-25T16:19:55.517Z,10.20
2023-03-25T16:22:59.314Z,10.00
2023-03-25T16:26:01.022Z,10.00
2023-03-25T16:29:21.177Z,10.00
2023-03-25T16:32:26.203Z,10.10
2023-03-25T16:35:28.708Z,10.10
2023-03-25T16:38:31.688Z,10.10
2023-03-25T16:41:36.369Z,10.10
2023-03-25T16:44:38.303Z,10.40
2023-03-25T16:47:40.365Z,10.50
2023-03-25T16:50:43.070Z,10.30
2023-03-25T16:53:51.967Z,10.30
2023-03-25T16:56:54.649Z,10.10
2023-03-25T16:59:56.517Z,10.00
2023-03-25T17:03:01.521Z,10.00
2023-03-25T17:06:22.716Z,9.90
2023-03-25T17:09:33.998Z,10.00
2023-03-25T17:12:35.851Z,10.00
2023-03-25T17:15:38.333Z,10.00
2023-03-25T17:18:40.270Z,10.00
2023-03-25T17:22:16.508Z,10.10
2023-03-25T17:25:35.366Z,10.10
2023-03-25T17:29:06.210Z,10.10
2023-03-25T17:32:18.157Z,9.90
2023-03-25T17:35:25.300Z,8.90
2023-03-25T17:38:36.379Z,8.20
2023-03-25T17:41:39.677Z,8.10
2023-03-25T17:44:45.253Z,8.00
2023-03-25T17:47:47.210Z,7.90
2023-03-25T17:50:53.809Z,7.90
2023-03-25T17:53:56.108Z,7.80
2023-03-25T17:56:58.021Z,7.90
2023-03-25T17:59:59.838Z,8.00
2023-03-25T18:03:01.779Z,8.00
2023-03-25T18:06:05.205Z,8.00
2023-03-25T18:09:18.884Z,8.00
2023-03-25T18:12:21.054Z,8.00
2023-03-25T18:15:22.963Z,8.10
2023-03-25T18:18:26.403Z,8.10
2023-03-25T18:21:28.124Z,8.20
2023-03-25T18:24:29.923Z,8.20
2023-03-25T18:27:42.697Z,8.10
2023-03-25T18:30:50.689Z,8.10
2023-03-25T18:33:54.059Z,7.90
2023-03-25T18:36:55.837Z,7.70
2023-03-25T18:39:57.725Z,7.60
2023-03-25T18:42:59.539Z,7.60
2023-03-25T18:46:01.361Z,7.50
2023-03-25T18:49:05.074Z,7.60
2023-03-25T18:52:06.823Z,7.50
2023-03-25T18:55:09.321Z,7.50
2023-03-25T18:58:25.659Z,7.50
2023-03-25T19:01:27.548Z,7.60
2023-03-25T19:04:29.930Z,7.50
2023-03-25T19:07:31.647Z,7.50
2023-03-25T19:10:34.645Z,7.50
2023-03-25T19:13:36.394Z,7.40
2023-03-25T19:16:38.116Z,7.60
2023-03-25T19:19:40.888Z,7.60
2023-03-25T19:22:43.610Z,7.60
2023-03-25T19:25:47.299Z,7.60
2023-03-25T19:28:49.021Z,7.70
2023-03-25T19:31:50.830Z,7.70
2023-03-25T19:34:56.488Z,7.80
2023-03-25T19:37:58.389Z,7.80
2023-03-25T19:41:03.514Z,7.80
2023-03-25T19:44:05.316Z,7.80
2023-03-25T19:47:07.293Z,7.70
2023-03-25T19:50:10.992Z,7.70
2023-03-25T19:53:12.701Z,7.70
2023-03-25T19:56:14.415Z,7.60
2023-03-25T19:59:17.386Z,7.60
2023-03-25T20:02:19.191Z,7.60
2023-03-25T20:05:22.160Z,7.70
2023-03-25T20:08:24.028Z,7.70
2023-03-25T20:11:25.829Z,7.80
2023-03-25T20:14:27.568Z,8.00
2023-03-25T20:17:29.283Z,7.90
2023-03-25T20:20:31.217Z,7.90
2023-03-25T20:23:32.927Z,7.90
2023-03-25T20:26:34.832Z,8.00
2023-03-25T20:29:36.787Z,7.90
2023-03-25T20:32:42.042Z,7.90
2023-03-25T20:35:45.452Z,7.80
2023-03-25T20:38:56.497Z,7.80
2023-03-25T20:41:59.138Z,7.80
2023-03-25T20:45:01.067Z,7.90
2023-03-25T20:48:03.421Z,7.90
2023-03-25T20:51:07.477Z,7.80
2023-03-25T20:54:10.594Z,7.90
2023-03-25T20:57:12.520Z,7.80
2023-03-25T21:00:14.585Z,7.80
2023-03-25T21:03:16.636Z,7.80
2023-03-25T21:06:23.623Z,7.90
2023-03-25T21:09:26.584Z,7.90
2023-03-25T21:12:40.548Z,7.90
2023-03-25T21:15:44.865Z,7.90
2023-03-25T21:18:47.644Z,7.90
2023-03-25T21:21:49.433Z,8.00
2023-03-25T21:24:51.306Z,8.00
2023-03-25T21:27:53.974Z,8.00
2023-03-25T21:31:08.140Z,8.10
2023-03-25T21:34:09.906Z,8.00
2023-03-25T21:37:11.771Z,8.00
2023-03-25T21:40:13.644Z,8.10
2023-03-25T21:43:15.534Z,8.00
2023-03-25T21:46:17.464Z,8.00
2023-03-25T21:49:22.451Z,8.00
2023-03-25T21:52:26.292Z,8.00
2023-03-25T21:55:28.040Z,8.10
2023-03-25T21:58:36.270Z,8.10
2023-03-25T22:01:41.583Z,8.00
2023-03-25T22:04:43.555Z,8.00
2023-03-25T22:07:45.643Z,8.00
2023-03-25T22:10:47.383Z,7.90
2023-03-25T22:13:50.131Z,7.90
2023-03-25T22:16:52.006Z,7.90
2023-03-25T22:19:53.837Z,7.90
2023-03-25T22:22:55.834Z,7.90
2023-03-25T22:25:57.581Z,7.90
2023-03-25T22:29:01.338Z,7.90
2023-03-25T22:32:07.122Z,7.90
2023-03-25T22:35:13.921Z,7.90
2023-03-25T22:38:15.671Z,8.00
2023-03-25T22:41:18.415Z,8.00
2023-03-25T22:44:20.297Z,7.90
2023-03-25T22:47:22.108Z,8.00
2023-03-25T22:50:23.852Z,7.90
2023-03-25T22:53:26.796Z,7.90
2023-03-25T22:56:33.672Z,7.90
2023-03-25T22:59:35.530Z,7.90
2023-03-25T23:02:37.492Z,7.90
2023-03-25T23:05:39.447Z,7.80
2023-03-25T23:08:42.241Z,7.80
2023-03-25T23:11:44.016Z,7.70
2023-03-25T23:14:55.433Z,7.70
2023-03-25T23:17:57.199Z,7.70
2023-03-25T23:21:02.672Z,7.70
2023-03-25T23:24:04.733Z,7.60
2023-03-25T23:27:08.599Z,7.70
2023-03-25T23:30:11.515Z,7.70
2023-03-25T23:33:13.246Z,7.70
2023-03-25T23:36:18.633Z,7.70
2023-03-25T23:39:23.969Z,7.70
2023-03-25T23:42:35.340Z,7.80
2023-03-25T23:45:37.712Z,7.80
2023-03-25T23:48:43.293Z,7.70
2023-03-25T23:51:45.574Z,7.80
2023-03-25T23:54:48.514Z,7.70
2023-03-25T23:57:50.251Z,7.70
